createdAt,value
2022-08-29T00:01:05.788Z,1.73
2022-08-29T00:03:32.665Z,1.80
2022-08-29T00:05:59.276Z,1.75
2022-08-29T00:08:26.024Z,1.65
2022-08-29T00:10:52.925Z,2.03
2022-08-29T00:13:19.958Z,2.17
2022-08-29T00:15:47.270Z,1.80
2022-08-29T00:18:16.089Z,2.00
2022-08-29T00:20:43.724Z,1.80
2022-08-29T00:23:11.081Z,2.08
2022-08-29T00:25:38.108Z,1.80
2022-08-29T00:28:05.668Z,1.92
2022-08-29T00:30:33.555Z,2.00
2022-08-29T00:33:00.139Z,2.08
2022-08-29T00:35:30.156Z,1.55
2022-08-29T00:37:58.175Z,2.38
2022-08-29T00:40:35.190Z,1.92
2022-08-29T00:43:02.973Z,1.98
2022-08-29T00:45:30.378Z,2.17
2022-08-29T00:48:11.879Z,2.60
2022-08-29T00:50:38.507Z,2.20
2022-08-29T00:53:08.869Z,2.38
2022-08-29T00:55:38.602Z,1.65
2022-08-29T00:58:13.364Z,2.28
2022-08-29T01:00:41.812Z,2.33
2022-08-29T01:03:08.693Z,2.28
2022-08-29T01:05:36.652Z,1.85
2022-08-29T01:08:04.631Z,2.20
2022-08-29T01:10:50.246Z,2.50
2022-08-29T01:13:16.998Z,2.70
2022-08-29T01:15:46.577Z,1.75
2022-08-29T01:18:16.146Z,1.90
2022-08-29T01:21:07.642Z,2.03
2022-08-29T01:23:42.551Z,2.03
2022-08-29T01:26:11.430Z,2.30
2022-08-29T01:28:44.906Z,2.10
2022-08-29T01:31:37.762Z,2.15
2022-08-29T01:34:03.079Z,1.95
2022-08-29T01:36:45.862Z,2.15
2022-08-29T01:39:13.185Z,2.40
2022-08-29T01:41:41.824Z,2.30
2022-08-29T01:44:14.334Z,2.50
2022-08-29T01:46:41.187Z,1.90
2022-08-29T01:49:10.345Z,2.80
2022-08-29T01:51:38.076Z,2.60
2022-08-29T01:54:07.358Z,2.28
2022-08-29T01:56:37.075Z,2.40
2022-08-29T01:59:07.154Z,2.33
2022-08-29T02:01:37.219Z,2.28
2022-08-29T02:04:05.211Z,2.70
2022-08-29T02:06:32.325Z,2.40
2022-08-29T02:08:58.929Z,2.53
2022-08-29T02:11:25.574Z,2.67
2022-08-29T02:13:57.340Z,2.63
2022-08-29T02:16:30.087Z,2.70
2022-08-29T02:18:57.122Z,2.67
2022-08-29T02:21:26.804Z,3.13
2022-08-29T02:23:54.456Z,2.35
2022-08-29T02:26:21.715Z,2.28
2022-08-29T02:28:51.796Z,2.53
2022-08-29T02:31:20.762Z,2.40
2022-08-29T02:33:48.329Z,2.40
2022-08-29T02:36:15.944Z,2.05
2022-08-29T02:38:46.022Z,2.67
2022-08-29T02:41:14.409Z,2.25
2022-08-29T02:43:41.745Z,2.40
2022-08-29T02:46:08.570Z,2.47
2022-08-29T02:48:35.163Z,3.03
2022-08-29T02:51:01.817Z,2.58
2022-08-29T02:53:31.166Z,3.17
2022-08-29T02:55:58.495Z,2.92
2022-08-29T02:58:25.481Z,2.67
2022-08-29T03:00:54.266Z,3.10
2022-08-29T03:03:21.313Z,2.72
2022-08-29T03:05:48.183Z,2.80
2022-08-29T03:08:15.127Z,3.20
2022-08-29T03:10:43.468Z,2.78
2022-08-29T03:13:10.981Z,2.80
2022-08-29T03:15:37.927Z,2.58
2022-08-29T03:18:05.410Z,2.63
2022-08-29T03:20:35.437Z,2.97
2022-08-29T03:23:02.417Z,2.75
2022-08-29T03:25:29.125Z,3.10
2022-08-29T03:27:55.724Z,2.83
2022-08-29T03:30:23.896Z,2.92
2022-08-29T03:32:51.048Z,2.70
2022-08-29T03:35:19.728Z,2.50
2022-08-29T03:37:46.382Z,2.80
2022-08-29T03:40:14.195Z,3.35
2022-08-29T03:42:42.936Z,2.63
2022-08-29T03:45:13.460Z,2.40
2022-08-29T03:47:41.088Z,2.28
2022-08-29T03:50:08.452Z,3.13
2022-08-29T03:52:35.052Z,2.63
2022-08-29T03:55:01.931Z,2.92
2022-08-29T03:57:29.197Z,2.67
2022-08-29T03:59:58.201Z,2.42
2022-08-29T04:02:24.955Z,2.80
2022-08-29T04:05:10.047Z,2.50
2022-08-29T04:07:47.603Z,2.42
2022-08-29T04:10:21.678Z,2.20
2022-08-29T04:12:54.296Z,2.58
2022-08-29T04:17:53.243Z,1.98
2022-08-29T04:20:24.985Z,2.47
2022-08-29T04:22:54.376Z,2.10
2022-08-29T04:25:25.148Z,2.53
2022-08-29T04:27:52.362Z,2.92
2022-08-29T04:30:23.367Z,2.78
2022-08-29T04:32:50.466Z,2.67
2022-08-29T04:35:17.721Z,2.58
2022-08-29T04:37:44.824Z,2.47
2022-08-29T04:40:15.786Z,2.83
2022-08-29T04:42:42.963Z,2.72
2022-08-29T04:45:13.308Z,2.60
2022-08-29T04:47:41.597Z,2.42
2022-08-29T04:50:11.146Z,2.90
2022-08-29T04:52:37.753Z,2.95
2022-08-29T04:55:05.877Z,2.42
2022-08-29T04:57:34.550Z,2.42
2022-08-29T05:00:01.154Z,2.67
2022-08-29T05:02:28.276Z,2.45
2022-08-29T05:04:56.772Z,2.72
2022-08-29T05:07:26.538Z,2.80
2022-08-29T05:10:02.276Z,2.65
2022-08-29T05:12:30.682Z,2.70
2022-08-29T05:14:57.929Z,2.45
2022-08-29T05:17:24.862Z,2.95
2022-08-29T05:19:52.030Z,2.80
2022-08-29T05:22:19.974Z,2.38
2022-08-29T05:24:48.004Z,2.97
2022-08-29T05:27:18.436Z,2.47
2022-08-29T05:29:47.534Z,3.05
2022-08-29T05:32:14.963Z,2.65
2022-08-29T05:34:43.473Z,2.60
2022-08-29T05:37:19.514Z,2.35
2022-08-29T05:39:49.009Z,2.85
2022-08-29T05:42:17.828Z,3.10
2022-08-29T05:44:44.832Z,2.83
2022-08-29T05:47:13.226Z,3.03
2022-08-29T05:49:42.044Z,2.92
2022-08-29T05:52:09.974Z,3.10
2022-08-29T05:54:39.343Z,3.53
2022-08-29T05:57:07.479Z,3.00
2022-08-29T05:59:35.465Z,2.67
2022-08-29T06:02:02.375Z,2.72
2022-08-29T06:04:29.412Z,2.30
2022-08-29T06:06:56.032Z,3.15
2022-08-29T06:09:22.811Z,2.83
2022-08-29T06:11:51.135Z,2.25
2022-08-29T06:14:17.790Z,2.60
2022-08-29T06:16:44.435Z,3.13
2022-08-29T06:19:11.988Z,2.58
2022-08-29T06:21:38.820Z,2.38
2022-08-29T06:24:06.522Z,2.90
2022-08-29T06:26:33.386Z,3.30
2022-08-29T06:29:00.721Z,2.70
2022-08-29T06:31:29.523Z,2.38
2022-08-29T06:34:02.951Z,2.40
2022-08-29T06:36:32.213Z,2.30
2022-08-29T06:39:02.978Z,2.63
2022-08-29T06:41:30.522Z,3.05
2022-08-29T06:43:57.455Z,2.40
2022-08-29T06:46:37.806Z,2.78
2022-08-29T06:49:06.908Z,3.03
2022-08-29T06:51:36.201Z,2.65
2022-08-29T06:54:05.221Z,2.65
2022-08-29T06:56:34.538Z,2.53
2022-08-29T06:59:04.760Z,2.75
2022-08-29T07:01:31.476Z,3.08
2022-08-29T07:04:00.777Z,3.03
2022-08-29T07:06:27.839Z,2.70
2022-08-29T07:08:55.787Z,2.80
2022-08-29T07:11:29.988Z,2.63
2022-08-29T07:13:58.937Z,2.72
2022-08-29T07:16:26.138Z,2.60
2022-08-29T07:18:53.397Z,2.90
2022-08-29T07:21:23.322Z,2.80
2022-08-29T07:23:51.054Z,2.97
2022-08-29T07:26:27.063Z,1.95
2022-08-29T07:28:56.716Z,2.95
2022-08-29T07:31:25.213Z,2.42
2022-08-29T07:34:02.709Z,2.53
2022-08-29T07:36:34.639Z,2.17
2022-08-29T07:39:02.430Z,2.55
2022-08-29T07:41:29.088Z,2.30
2022-08-29T07:43:55.757Z,2.22
2022-08-29T07:46:22.922Z,2.45
2022-08-29T07:48:49.662Z,2.65
2022-08-29T07:51:19.053Z,2.25
2022-08-29T07:53:46.861Z,2.58
2022-08-29T07:56:16.947Z,2.25
2022-08-29T07:58:43.685Z,2.83
2022-08-29T08:01:12.535Z,1.90
2022-08-29T08:03:50.211Z,2.45
2022-08-29T08:06:22.100Z,2.33
2022-08-29T08:08:49.705Z,2.53
2022-08-29T08:11:17.198Z,2.90
2022-08-29T08:13:44.493Z,2.58
2022-08-29T08:16:15.124Z,2.78
2022-08-29T08:18:43.803Z,2.67
2022-08-29T08:21:11.942Z,2.22
2022-08-29T08:23:39.250Z,2.53
2022-08-29T08:26:06.403Z,3.97
2022-08-29T08:28:33.414Z,2.45
2022-08-29T08:31:05.657Z,2.22
2022-08-29T08:33:34.846Z,2.75
2022-08-29T08:36:01.946Z,2.40
2022-08-29T08:38:28.539Z,2.63
2022-08-29T08:41:27.642Z,2.58
2022-08-29T08:44:37.040Z,2.90
2022-08-29T08:47:07.515Z,2.22
2022-08-29T08:49:44.785Z,2.03
2022-08-29T08:52:31.206Z,2.47
2022-08-29T08:55:15.163Z,2.63
2022-08-29T08:57:50.120Z,2.13
2022-08-29T09:00:16.803Z,2.15
2022-08-29T09:02:52.459Z,1.85
2022-08-29T09:05:57.620Z,1.92
2022-08-29T09:08:52.787Z,1.95
2022-08-29T09:12:04.941Z,2.03
2022-08-29T09:15:07.672Z,1.95
2022-08-29T09:17:56.445Z,1.85
2022-08-29T09:20:29.151Z,2.40
2022-08-29T09:23:02.352Z,1.92
2022-08-29T09:25:30.327Z,2.33
2022-08-29T09:27:59.979Z,2.38
2022-08-29T09:30:36.015Z,2.42
2022-08-29T09:33:10.962Z,2.47
2022-08-29T09:35:42.340Z,2.13
2022-08-29T09:38:24.313Z,1.92
2022-08-29T09:41:08.835Z,2.60
2022-08-29T09:43:44.293Z,2.00
2022-08-29T09:46:21.870Z,2.15
2022-08-29T09:49:13.945Z,2.17
2022-08-29T09:51:56.217Z,2.10
2022-08-29T09:54:22.901Z,2.50
2022-08-29T09:57:00.634Z,2.10
2022-08-29T09:59:35.171Z,2.35
2022-08-29T10:02:23.142Z,2.00
2022-08-29T10:05:01.565Z,2.40
2022-08-29T10:07:31.859Z,2.22
2022-08-29T10:10:00.587Z,2.35
2022-08-29T10:12:45.920Z,2.38
2022-08-29T10:15:39.827Z,2.22
2022-08-29T10:18:27.343Z,1.98
2022-08-29T10:21:13.256Z,1.98
2022-08-29T10:23:45.848Z,2.30
2022-08-29T10:26:38.093Z,2.30
2022-08-29T10:29:31.869Z,2.08
2022-08-29T10:32:46.145Z,2.03
2022-08-29T10:35:18.390Z,2.05
2022-08-29T10:38:09.931Z,2.50
2022-08-29T10:40:47.374Z,2.03
2022-08-29T10:43:16.938Z,1.85
2022-08-29T10:45:56.050Z,2.10
2022-08-29T10:48:30.607Z,1.85
2022-08-29T10:51:22.677Z,2.58
2022-08-29T10:54:03.390Z,2.08
2022-08-29T10:56:42.936Z,1.95
2022-08-29T10:59:21.934Z,2.20
2022-08-29T11:01:59.303Z,2.08
2022-08-29T11:04:36.528Z,2.40
2022-08-29T11:07:18.157Z,2.05
2022-08-29T11:09:55.700Z,2.10
2022-08-29T11:12:37.194Z,2.58
2022-08-29T11:15:18.952Z,2.25
2022-08-29T11:17:54.116Z,2.20
2022-08-29T11:20:27.501Z,2.03
2022-08-29T11:23:00.358Z,2.20
2022-08-29T11:25:28.139Z,2.08
2022-08-29T11:28:15.061Z,2.10
2022-08-29T11:30:48.222Z,2.58
2022-08-29T11:33:24.842Z,2.20
2022-08-29T11:36:12.448Z,1.80
2022-08-29T11:39:00.440Z,2.35
2022-08-29T11:41:32.501Z,2.38
2022-08-29T11:44:08.918Z,2.30
2022-08-29T11:46:40.832Z,2.38
2022-08-29T11:49:33.930Z,2.17
2022-08-29T11:52:10.882Z,2.05
2022-08-29T11:54:39.059Z,1.95
2022-08-29T11:57:05.636Z,2.08
2022-08-29T11:59:50.110Z,2.08
2022-08-29T12:02:29.141Z,2.17
2022-08-29T12:05:49.131Z,2.03
2022-08-29T12:08:36.874Z,2.10
2022-08-29T12:11:04.814Z,2.13
2022-08-29T12:13:46.749Z,1.83
2022-08-29T12:16:16.558Z,2.67
2022-08-29T12:18:46.075Z,1.73
2022-08-29T12:21:32.276Z,2.08
2022-08-29T12:23:59.462Z,1.77
2022-08-29T12:26:45.827Z,1.98
2022-08-29T12:29:26.210Z,2.15
2022-08-29T12:32:39.840Z,2.22
2022-08-29T12:35:18.854Z,2.00
2022-08-29T12:38:10.722Z,1.90
2022-08-29T12:40:55.807Z,2.28
2022-08-29T12:43:23.116Z,2.10
2022-08-29T12:45:52.054Z,2.35
2022-08-29T12:48:25.493Z,2.20
2022-08-29T12:50:52.595Z,2.00
2022-08-29T12:53:35.674Z,3.17
2022-08-29T12:56:21.867Z,2.22
2022-08-29T12:58:51.535Z,2.35
2022-08-29T13:01:40.826Z,2.47
2022-08-29T13:04:10.451Z,2.00
2022-08-29T13:06:49.543Z,2.00
2022-08-29T13:09:26.264Z,2.30
2022-08-29T13:12:07.694Z,2.10
2022-08-29T13:15:03.680Z,2.15
2022-08-29T13:17:35.554Z,1.98
2022-08-29T13:20:42.956Z,1.98
2022-08-29T13:23:16.246Z,2.17
2022-08-29T13:25:58.005Z,2.38
2022-08-29T13:28:35.953Z,1.88
2022-08-29T13:31:24.959Z,2.10
2022-08-29T13:33:51.558Z,1.98
2022-08-29T13:36:27.129Z,2.05
2022-08-29T13:39:15.741Z,2.00
2022-08-29T13:42:02.597Z,2.00
2022-08-29T13:44:40.066Z,2.00
2022-08-29T13:47:53.605Z,1.95
2022-08-29T13:52:50.679Z,1.73
2022-08-29T13:55:17.328Z,1.95
2022-08-29T13:57:46.668Z,2.95
2022-08-29T14:00:13.879Z,2.47
2022-08-29T14:02:45.226Z,2.05
2022-08-29T14:05:13.830Z,2.35
2022-08-29T14:07:43.549Z,2.03
2022-08-29T14:10:12.321Z,2.10
2022-08-29T14:12:39.304Z,1.90
2022-08-29T14:15:09.908Z,2.05
2022-08-29T14:17:40.766Z,1.55
2022-08-29T14:20:12.586Z,2.58
2022-08-29T14:22:39.909Z,2.17
2022-08-29T14:25:08.763Z,2.35
2022-08-29T14:27:35.710Z,1.73
2022-08-29T14:30:03.613Z,2.17
2022-08-29T14:32:30.226Z,1.92
2022-08-29T14:34:56.867Z,1.90
2022-08-29T14:37:23.997Z,2.10
2022-08-29T14:39:51.016Z,1.75
2022-08-29T14:42:18.737Z,1.90
2022-08-29T14:44:45.370Z,2.40
2022-08-29T14:47:12.059Z,1.98
2022-08-29T14:49:39.033Z,2.03
2022-08-29T14:52:06.261Z,1.80
2022-08-29T14:54:33.338Z,2.20
2022-08-29T14:57:00.809Z,1.70
2022-08-29T14:59:28.120Z,2.15
2022-08-29T15:01:55.746Z,2.40
2022-08-29T15:04:36.836Z,2.55
2022-08-29T15:07:06.484Z,1.83
2022-08-29T15:09:33.378Z,1.90
2022-08-29T15:12:00.090Z,1.70
2022-08-29T15:14:26.775Z,1.77
2022-08-29T15:16:53.449Z,2.20
2022-08-29T15:22:09.215Z,2.70
2022-08-29T15:24:36.096Z,1.80
2022-08-29T15:27:03.429Z,1.85
2022-08-29T15:29:31.888Z,2.05
2022-08-29T15:31:58.729Z,2.10
2022-08-29T15:34:26.736Z,1.60
2022-08-29T15:36:55.136Z,1.60
2022-08-29T15:39:23.030Z,2.03
2022-08-29T15:41:49.639Z,1.73
2022-08-29T15:44:16.356Z,1.63
2022-08-29T15:46:50.388Z,1.60
2022-08-29T15:49:19.746Z,1.58
2022-08-29T15:51:46.721Z,1.63
2022-08-29T15:54:14.620Z,1.85
2022-08-29T15:56:41.467Z,1.90
2022-08-29T15:59:10.771Z,1.60
2022-08-29T16:01:41.255Z,1.35
2022-08-29T16:04:09.680Z,1.65
2022-08-29T16:06:36.565Z,1.40
2022-08-29T16:09:04.495Z,1.70
2022-08-29T16:11:42.125Z,1.92
2022-08-29T16:16:56.364Z,1.77
2022-08-29T16:19:22.970Z,1.80
2022-08-29T16:21:49.605Z,1.95
2022-08-29T16:24:16.321Z,1.80
2022-08-29T16:26:45.797Z,1.88
2022-08-29T16:29:20.910Z,1.70
2022-08-29T16:31:55.229Z,1.83
2022-08-29T16:34:24.980Z,1.52
2022-08-29T16:36:58.752Z,2.45
2022-08-29T16:39:26.791Z,1.73
2022-08-29T16:41:53.967Z,1.85
2022-08-29T16:44:21.411Z,2.20
2022-08-29T16:46:49.838Z,1.88
2022-08-29T16:49:16.480Z,1.60
2022-08-29T16:51:43.136Z,2.25
2022-08-29T16:54:10.202Z,1.65
2022-08-29T16:56:36.830Z,2.33
2022-08-29T16:59:04.550Z,2.30
2022-08-29T17:01:36.328Z,2.08
2022-08-29T17:04:06.156Z,2.03
2022-08-29T17:06:38.049Z,1.63
2022-08-29T17:09:08.750Z,2.57
2022-08-29T17:11:37.014Z,1.60
2022-08-29T17:14:05.533Z,1.50
2022-08-29T17:16:32.287Z,1.50
2022-08-29T17:19:02.310Z,1.73
2022-08-29T17:21:32.230Z,1.77
2022-08-29T17:24:00.033Z,1.60
2022-08-29T17:26:30.344Z,2.40
2022-08-29T17:29:02.743Z,2.05
2022-08-29T17:31:31.167Z,2.00
2022-08-29T17:34:09.919Z,1.48
2022-08-29T17:36:38.206Z,2.00
2022-08-29T17:39:06.186Z,1.52
2022-08-29T17:41:33.440Z,1.67
2022-08-29T17:44:02.082Z,1.75
2022-08-29T17:46:29.604Z,2.85
2022-08-29T17:48:56.683Z,2.00
2022-08-29T17:51:24.153Z,1.90
2022-08-29T17:53:51.023Z,2.25
2022-08-29T17:56:21.492Z,2.63
2022-08-29T17:58:48.566Z,2.10
2022-08-29T18:01:17.890Z,1.85
2022-08-29T18:03:45.102Z,2.08
2022-08-29T18:06:14.598Z,1.63
2022-08-29T18:08:48.215Z,1.67
2022-08-29T18:11:17.186Z,1.60
2022-08-29T18:13:44.970Z,1.83
2022-08-29T18:16:12.373Z,1.90
2022-08-29T18:18:42.333Z,1.75
2022-08-29T18:21:09.300Z,1.52
2022-08-29T18:23:36.525Z,1.88
2022-08-29T18:26:03.912Z,1.40
2022-08-29T18:28:31.399Z,1.92
2022-08-29T18:30:58.823Z,1.80
2022-08-29T18:33:38.923Z,1.73
2022-08-29T18:36:11.320Z,2.20
2022-08-29T18:38:38.030Z,1.50
2022-08-29T18:41:04.824Z,1.35
2022-08-29T18:43:32.554Z,1.42
2022-08-29T18:46:00.168Z,1.75
2022-08-29T18:48:29.565Z,1.48
2022-08-29T18:50:57.879Z,1.30
2022-08-29T18:53:26.503Z,1.30
2022-08-29T18:55:53.937Z,1.20
2022-08-29T18:58:26.678Z,1.60
2022-08-29T19:00:54.349Z,1.52
2022-08-29T19:03:21.887Z,3.85
2022-08-29T19:05:50.786Z,1.35
2022-08-29T19:08:24.668Z,2.03
2022-08-29T19:10:53.779Z,2.30
2022-08-29T19:13:22.567Z,1.30
2022-08-29T19:15:53.178Z,1.13
2022-08-29T19:18:19.846Z,1.30
2022-08-29T19:21:04.865Z,1.27
2022-08-29T19:23:38.279Z,1.00
2022-08-29T19:26:09.289Z,1.00
2022-08-29T19:28:36.693Z,1.25
2022-08-29T19:31:04.555Z,0.98
2022-08-29T19:33:32.154Z,1.20
2022-08-29T19:35:58.793Z,1.00
2022-08-29T19:38:25.412Z,1.00
2022-08-29T19:40:56.420Z,1.33
2022-08-29T19:43:27.452Z,1.40
2022-08-29T19:45:54.795Z,1.38
2022-08-29T19:48:22.153Z,1.25
2022-08-29T19:50:49.986Z,1.30
2022-08-29T19:53:26.848Z,1.00
2022-08-29T19:55:56.239Z,1.20
2022-08-29T19:58:31.050Z,1.00
2022-08-29T20:01:00.772Z,1.10
2022-08-29T20:03:27.819Z,1.13
2022-08-29T20:05:55.506Z,1.10
2022-08-29T20:08:22.542Z,1.15
2022-08-29T20:10:49.590Z,1.30
2022-08-29T20:13:17.349Z,1.17
2022-08-29T20:15:44.409Z,1.38
2022-08-29T20:18:11.426Z,1.40
2022-08-29T20:20:40.239Z,1.10
2022-08-29T20:23:07.962Z,1.05
2022-08-29T20:25:35.583Z,1.15
2022-08-29T20:28:02.533Z,1.15
2022-08-29T20:30:31.925Z,1.10
2022-08-29T20:32:58.612Z,1.48
2022-08-29T20:35:43.732Z,1.27
2022-08-29T20:38:11.073Z,1.40
2022-08-29T20:40:39.575Z,1.30
2022-08-29T20:43:07.038Z,1.40
2022-08-29T20:45:34.460Z,1.20
2022-08-29T20:48:02.093Z,1.38
2022-08-29T20:52:56.360Z,1.25
2022-08-29T20:55:23.624Z,1.30
2022-08-29T20:57:50.325Z,1.40
2022-08-29T21:00:19.666Z,1.40
2022-08-29T21:03:05.627Z,1.33
2022-08-29T21:06:01.409Z,1.10
2022-08-29T21:08:28.024Z,1.45
2022-08-29T21:10:56.348Z,1.20
2022-08-29T21:13:23.998Z,1.52
2022-08-29T21:15:50.962Z,1.33
2022-08-29T21:18:20.564Z,1.50
2022-08-29T21:20:53.824Z,1.20
2022-08-29T21:23:23.443Z,1.60
2022-08-29T21:25:58.931Z,1.52
2022-08-29T21:28:27.356Z,1.33
2022-08-29T21:30:54.489Z,1.42
2022-08-29T21:33:22.150Z,1.75
2022-08-29T21:35:50.051Z,1.98
2022-08-29T21:38:17.578Z,1.70
2022-08-29T21:40:50.765Z,1.65
2022-08-29T21:43:19.631Z,1.40
2022-08-29T21:45:47.631Z,1.73
2022-08-29T21:48:14.474Z,1.60
2022-08-29T21:50:41.533Z,2.22
2022-08-29T21:53:11.369Z,2.10
2022-08-29T21:55:37.969Z,1.55
2022-08-29T21:58:04.609Z,2.13
2022-08-29T22:00:34.238Z,1.48
2022-08-29T22:03:04.206Z,1.70
2022-08-29T22:05:31.499Z,1.90
2022-08-29T22:08:00.982Z,1.80
2022-08-29T22:10:30.652Z,1.95
2022-08-29T22:12:57.635Z,1.75
2022-08-29T22:15:43.928Z,1.92
2022-08-29T22:18:12.423Z,2.05
2022-08-29T22:20:38.970Z,1.92
2022-08-29T22:23:06.020Z,1.75
2022-08-29T22:25:34.389Z,2.15
2022-08-29T22:28:01.435Z,2.08
2022-08-29T22:30:32.451Z,2.28
2022-08-29T22:33:00.395Z,2.20
2022-08-29T22:35:27.792Z,2.70
2022-08-29T22:37:54.628Z,2.20
2022-08-29T22:40:21.475Z,2.15
2022-08-29T22:42:48.239Z,2.00
2022-08-29T22:45:16.274Z,2.00
2022-08-29T22:47:44.749Z,2.20
2022-08-29T22:50:17.008Z,1.98
2022-08-29T22:52:44.234Z,2.23
2022-08-29T22:58:59.309Z,2.28
2022-08-29T23:01:27.350Z,2.28
2022-08-29T23:03:56.221Z,2.22
2022-08-29T23:06:24.337Z,2.33
2022-08-29T23:08:51.765Z,2.45
2022-08-29T23:11:18.946Z,2.47
2022-08-29T23:13:46.816Z,2.25
2022-08-29T23:16:14.544Z,2.53
2022-08-29T23:18:41.336Z,2.33
2022-08-29T23:21:07.964Z,1.98
2022-08-29T23:23:35.393Z,2.00
2022-08-29T23:26:04.294Z,2.05
2022-08-29T23:28:32.075Z,1.92
2022-08-29T23:30:59.329Z,1.80
2022-08-29T23:33:26.194Z,2.00
2022-08-29T23:35:53.368Z,1.90
2022-08-29T23:38:20.477Z,2.25
2022-08-29T23:40:53.168Z,1.60
2022-08-29T23:43:21.699Z,1.85
2022-08-29T23:45:50.021Z,1.38
2022-08-29T23:48:16.996Z,1.90
2022-08-29T23:50:48.997Z,1.80
2022-08-29T23:53:16.557Z,1.80
2022-08-29T23:55:43.387Z,1.70
2022-08-29T23:58:10.114Z,1.60
